Time;durP1;ratioP1;P1;durP2;ratioP2;P2;SDS_P1;SDS_P2;PMS_P1;PMS_P2;Temp;Humidity;BMP_temperature;BMP_pressure;BME280_temperature;BME280_humidity;BME280_pressure;Samples;Min_cycle;Max_cycle;Signal;HPM_P1;HPM_P2
2022/11/03 00:01:56;;;;;;;15.77;14.37;;;5.20;99.90;;;;;;5085846;28;20181;-81
2022/11/03 00:04:22;;;;;;;17.40;15.77;;;5.20;99.90;;;;;;5073776;28;20548;-81
2022/11/03 00:06:50;;;;;;;13.90;12.70;;;5.10;99.90;;;;;;5058539;28;20200;-80
2022/11/03 00:09:17;;;;;;;13.80;12.13;;;5.10;99.90;;;;;;5054429;28;20185;-80
2022/11/03 00:11:45;;;;;;;18.17;15.90;;;5.10;99.90;;;;;;5053236;28;20200;-79
2022/11/03 00:14:13;;;;;;;15.03;14.13;;;5.10;99.90;;;;;;5052733;28;20744;-80
2022/11/03 00:16:39;;;;;;;16.90;15.33;;;5.10;99.90;;;;;;5074066;28;20184;-78
2022/11/03 00:19:06;;;;;;;11.10;8.90;;;5.10;99.90;;;;;;5082240;28;20209;-80
2022/11/03 00:21:32;;;;;;;10.47;8.37;;;5.10;99.90;;;;;;5080117;28;20190;-79
2022/11/03 00:23:58;;;;;;;10.97;9.97;;;5.10;99.90;;;;;;5089723;28;20810;-80
2022/11/03 00:26:26;;;;;;;10.97;10.00;;;5.00;99.90;;;;;;5078686;28;20232;-79
2022/11/03 00:28:59;;;;;;;10.33;9.30;;;5.00;99.90;;;;;;5055413;28;20189;-80
2022/11/03 00:31:27;;;;;;;9.90;8.90;;;4.90;99.90;;;;;;5055893;28;20216;-80
2022/11/03 00:33:54;;;;;;;13.20;11.60;;;4.90;99.90;;;;;;5053545;28;20213;-80
2022/11/03 00:36:22;;;;;;;19.80;18.27;;;4.90;99.90;;;;;;5063552;28;20200;-80
2022/11/03 00:38:48;;;;;;;22.53;20.83;;;5.00;99.90;;;;;;5072733;28;20276;-79
2022/11/03 00:41:15;;;;;;;29.77;27.30;;;5.00;99.90;;;;;;5073288;28;20186;-79
2022/11/03 00:43:41;;;;;;;27.87;25.80;;;5.00;99.90;;;;;;5072686;28;20202;-79
2022/11/03 00:46:08;;;;;;;29.70;27.37;;;5.00;99.90;;;;;;5065696;28;20178;-80
2022/11/03 00:48:35;;;;;;;23.60;21.87;;;5.10;99.90;;;;;;5053383;28;20208;-80
2022/11/03 00:51:23;;;;;;;12.00;11.00;;;5.00;99.90;;;;;;5052554;28;20723;-79
2022/11/03 00:53:57;;;;;;;13.20;12.13;;;5.00;99.90;;;;;;5052943;28;20570;-80
2022/11/03 00:56:25;;;;;;;11.37;10.50;;;4.90;99.90;;;;;;5062771;28;20230;-80
2022/11/03 00:58:52;;;;;;;8.53;7.70;;;4.80;99.90;;;;;;5071544;28;20213;-79
2022/11/03 01:01:21;;;;;;;13.17;7.77;;;4.70;99.90;;;;;;5072003;28;20177;-80
2022/11/03 01:06:49;;;;;;;9.93;8.90;;;4.70;99.90;;;;;;5065761;28;20658;-80
2022/11/03 01:09:42;;;;;;;12.33;9.67;;;4.70;99.90;;;;;;5072580;28;20193;-80
2022/11/03 01:12:14;;;;;;;12.70;11.40;;;4.60;99.90;;;;;;5069975;28;20224;-79
2022/11/03 01:14:46;;;;;;;22.13;20.27;;;4.60;99.90;;;;;;5077805;28;20205;-78
2022/11/03 01:17:23;;;;;;;19.53;18.10;;;4.70;99.90;;;;;;5089704;28;20208;-78
2022/11/03 01:19:49;;;;;;;14.33;13.30;;;4.60;99.90;;;;;;5082568;28;20191;-81
2022/11/03 01:22:16;;;;;;;15.27;14.30;;;4.60;99.90;;;;;;5077380;28;20672;-79
2022/11/03 01:24:43;;;;;;;13.57;12.30;;;4.40;99.90;;;;;;5077941;28;20194;-81
2022/11/03 01:27:12;;;;;;;18.73;17.27;;;4.30;99.90;;;;;;5062202;28;20178;-80
2022/11/03 01:29:38;;;;;;;25.57;24.00;;;4.30;99.90;;;;;;5058873;28;20182;-79
2022/11/03 01:32:04;;;;;;;33.27;30.97;;;4.30;99.90;;;;;;5055926;28;20185;-80
2022/11/03 01:34:30;;;;;;;28.40;26.70;;;4.30;99.90;;;;;;5055066;28;20205;-80
2022/11/03 01:36:56;;;;;;;31.33;29.23;;;4.20;99.90;;;;;;5055885;28;20256;-80
2022/11/03 01:39:21;;;;;;;23.33;21.43;;;4.20;99.90;;;;;;5056270;28;20781;-80
2022/11/03 01:41:50;;;;;;;13.67;12.43;;;4.20;99.90;;;;;;5054629;28;20179;-81
2022/11/03 01:44:16;;;;;;;10.97;10.03;;;4.30;99.90;;;;;;5055637;28;20206;-79
2022/11/03 01:46:45;;;;;;;10.63;9.23;;;4.30;99.90;;;;;;5065721;28;20222;-80
2022/11/03 01:49:19;;;;;;;9.33;8.03;;;4.40;99.90;;;;;;5074558;28;20189;-81
2022/11/03 01:51:51;;;;;;;11.23;7.70;;;4.30;99.90;;;;;;5074971;28;20217;-79
2022/11/03 01:54:20;;;;;;;9.20;8.20;;;4.40;99.90;;;;;;5078147;28;20227;-80
2022/11/03 01:56:46;;;;;;;9.87;7.43;;;4.30;99.90;;;;;;5069762;28;20201;-79
2022/11/03 01:59:15;;;;;;;8.57;7.73;;;4.30;99.90;;;;;;5075159;28;20285;-80
2022/11/03 02:01:42;;;;;;;8.53;7.63;;;4.30;99.90;;;;;;5076048;28;20378;-79
2022/11/03 02:04:15;;;;;;;8.90;8.20;;;4.20;99.90;;;;;;5075275;28;20583;-80
2022/11/03 02:06:41;;;;;;;11.10;10.07;;;4.20;99.90;;;;;;5064842;28;20170;-79
2022/11/03 02:09:09;;;;;;;11.10;10.30;;;4.20;99.90;;;;;;5067716;28;20553;-80
2022/11/03 02:14:21;;;;;;;30.07;28.03;;;4.10;99.90;;;;;;5074700;28;20300;-80
2022/11/03 02:16:58;;;;;;;31.87;30.03;;;4.00;99.90;;;;;;5078827;28;20209;-78
2022/11/03 02:19:55;;;;;;;25.60;23.93;;;4.00;99.90;;;;;;5061365;28;20206;-81
2022/11/03 02:22:36;;;;;;;23.47;21.80;;;3.90;99.90;;;;;;5057111;28;20654;-80
2022/11/03 02:25:14;;;;;;;22.37;21.07;;;3.90;99.90;;;;;;5055398;28;20201;-80
2022/11/03 02:27:40;;;;;;;12.83;11.93;;;3.90;99.90;;;;;;5068182;28;20220;-81
2022/11/03 02:30:06;;;;;;;10.50;9.77;;;3.90;99.90;;;;;;5063452;28;20212;-79
2022/11/03 02:32:49;;;;;;;13.53;7.47;;;3.90;99.90;;;;;;5071239;28;20216;-79
2022/11/03 02:35:25;;;;;;;7.57;7.00;;;3.90;99.90;;;;;;5060038;28;20591;-79
2022/11/03 02:37:56;;;;;;;8.13;7.27;;;3.90;99.90;;;;;;5068757;28;20259;-80
2022/11/03 02:40:31;;;;;;;8.60;7.90;;;3.80;99.90;;;;;;5074801;28;20239;-80
2022/11/03 02:42:59;;;;;;;9.80;9.03;;;3.80;99.90;;;;;;5074027;28;20263;-80
2022/11/03 02:45:27;;;;;;;11.40;10.47;;;3.80;99.90;;;;;;5073784;28;20201;-80
2022/11/03 02:47:57;;;;;;;11.23;10.33;;;3.80;99.90;;;;;;5058711;28;20192;-80
2022/11/03 02:50:31;;;;;;;12.97;10.97;;;3.80;99.90;;;;;;5054254;28;20200;-79
2022/11/03 02:52:57;;;;;;;12.00;10.43;;;3.80;99.90;;;;;;5054365;28;20284;-80
2022/11/03 02:55:44;;;;;;;10.57;9.87;;;3.80;99.90;;;;;;5054607;28;20221;-80
2022/11/03 02:58:15;;;;;;;11.27;10.37;;;3.80;99.90;;;;;;5053376;28;20686;-78
2022/11/03 03:01:05;;;;;;;11.57;10.47;;;3.80;99.90;;;;;;5055568;28;20188;-80
2022/11/03 03:03:42;;;;;;;13.67;10.87;;;3.70;99.90;;;;;;5056956;28;20309;-80
2022/11/03 03:06:11;;;;;;;11.77;10.57;;;3.80;99.90;;;;;;5058889;28;20180;-80
2022/11/03 03:08:42;;;;;;;12.90;11.67;;;3.80;99.90;;;;;;5074007;28;20196;-80
2022/11/03 03:11:11;;;;;;;12.33;11.30;;;3.80;99.90;;;;;;5073001;28;20213;-78
2022/11/03 03:13:38;;;;;;;10.80;9.87;;;3.70;99.90;;;;;;5072670;28;20574;-78
2022/11/03 03:16:04;;;;;;;10.60;9.50;;;3.70;99.90;;;;;;5069328;28;20754;-79
2022/11/03 03:18:36;;;;;;;10.70;9.70;;;3.70;99.90;;;;;;5053501;28;20241;-79
2022/11/03 03:21:11;;;;;;;13.30;12.17;;;3.70;99.90;;;;;;5052699;28;20677;-77
2022/11/03 03:23:46;;;;;;;14.23;12.73;;;3.70;99.90;;;;;;5052747;28;20201;-79
2022/11/03 03:26:48;;;;;;;12.43;11.20;;;3.70;99.90;;;;;;5058345;28;20203;-77
2022/11/03 03:29:19;;;;;;;12.17;10.80;;;3.70;99.90;;;;;;5065334;28;20184;-79
2022/11/03 03:31:52;;;;;;;11.27;10.37;;;3.70;99.90;;;;;;5076723;28;20177;-79
2022/11/03 03:34:20;;;;;;;11.00;9.80;;;3.60;99.90;;;;;;5074893;28;20192;-80
2022/11/03 03:36:51;;;;;;;10.20;9.37;;;3.60;99.90;;;;;;5062585;28;20585;-80
2022/11/03 03:39:18;;;;;;;11.53;10.53;;;3.60;99.90;;;;;;5053078;28;20336;-78
2022/11/03 03:41:47;;;;;;;9.60;8.80;;;3.50;99.90;;;;;;5053107;28;20178;-78
2022/11/03 03:44:14;;;;;;;9.80;8.90;;;3.50;99.90;;;;;;5054369;28;20888;-78
2022/11/03 03:47:05;;;;;;;12.30;9.60;;;3.50;99.90;;;;;;5063709;28;20259;-77
2022/11/03 03:49:31;;;;;;;11.43;10.27;;;3.50;99.90;;;;;;5078090;28;20211;-78
2022/11/03 03:51:57;;;;;;;11.80;11.00;;;3.50;99.90;;;;;;5077333;28;20658;-79
2022/11/03 03:54:23;;;;;;;12.20;11.20;;;3.50;99.90;;;;;;5072925;28;20220;-78
2022/11/03 03:57:06;;;;;;;12.43;11.43;;;3.60;99.90;;;;;;5072536;28;20267;-78
2022/11/03 03:59:32;;;;;;;11.67;10.43;;;3.60;99.90;;;;;;5074166;28;20218;-78
2022/11/03 04:01:58;;;;;;;12.67;11.50;;;3.60;99.90;;;;;;5061486;28;20590;-78
2022/11/03 04:04:24;;;;;;;11.10;10.20;;;3.50;99.90;;;;;;5068066;28;20205;-78
2022/11/03 04:07:45;;;;;;;13.80;12.73;;;3.50;99.90;;;;;;5072420;28;20295;-77
2022/11/03 04:09:35;;;;;;;14.67;12.23;;;3.50;99.90;;;;;;5072878;28;20184;-77
2022/11/03 04:22:59;;;;;;;12.93;11.93;;;3.30;99.90;;;;;;5062307;28;20657;-81
2022/11/03 04:25:31;;;;;;;11.03;10.07;;;3.20;99.90;;;;;;5063446;28;20192;-79
2022/11/03 04:27:58;;;;;;;12.03;11.13;;;3.20;99.90;;;;;;5076616;28;20555;-80
2022/11/03 04:30:25;;;;;;;12.50;11.07;;;3.20;99.90;;;;;;5067356;28;20630;-80
2022/11/03 04:32:52;;;;;;;11.90;10.80;;;3.20;99.90;;;;;;5064392;28;20185;-80
2022/11/03 04:35:23;;;;;;;14.67;11.67;;;3.20;99.90;;;;;;5055037;28;20259;-81
2022/11/03 04:38:07;;;;;;;11.73;10.70;;;3.20;99.90;;;;;;5056105;28;20210;-80
2022/11/03 04:40:33;;;;;;;19.63;10.93;;;3.20;99.90;;;;;;5057175;28;20178;-81
2022/11/03 04:42:59;;;;;;;13.63;11.27;;;3.20;99.90;;;;;;5057978;28;20195;-81
2022/11/03 04:45:30;;;;;;;12.83;11.83;;;3.20;99.90;;;;;;5058333;28;20204;-81
2022/11/03 04:47:59;;;;;;;13.03;11.77;;;3.20;99.90;;;;;;5057869;28;20191;-81
2022/11/03 04:50:24;;;;;;;13.67;12.37;;;3.10;99.90;;;;;;5060316;28;20646;-81
2022/11/03 04:52:56;;;;;;;15.87;14.27;;;3.20;99.90;;;;;;5058803;28;20194;-80
2022/11/03 04:55:23;;;;;;;12.40;11.50;;;3.10;99.90;;;;;;5059867;28;20255;-82
2022/11/03 04:57:53;;;;;;;17.57;16.17;;;3.20;99.90;;;;;;5069228;28;20608;-82
2022/11/03 05:00:20;;;;;;;17.13;15.23;;;3.20;99.90;;;;;;5097496;28;20185;-82
2022/11/03 05:02:48;;;;;;;19.83;18.43;;;3.20;99.90;;;;;;5097323;28;20275;-81
2022/11/03 05:05:20;;;;;;;18.80;17.60;;;3.20;99.90;;;;;;5096820;28;20208;-82
2022/11/03 05:07:52;;;;;;;21.67;19.90;;;3.20;99.90;;;;;;5097771;28;20201;-77
2022/11/03 05:10:28;;;;;;;14.57;13.53;;;3.30;99.90;;;;;;5094584;28;20762;-72
2022/11/03 05:12:55;;;;;;;22.23;20.83;;;3.30;99.90;;;;;;5093450;28;20703;-72
2022/11/03 05:15:36;;;;;;;21.13;19.73;;;3.30;99.90;;;;;;5071310;28;20225;-72
2022/11/03 05:18:16;;;;;;;23.90;22.20;;;3.30;99.90;;;;;;5073164;28;20213;-72
2022/11/03 05:21:01;;;;;;;23.60;22.10;;;3.30;99.90;;;;;;5073647;28;20667;-72
2022/11/03 05:23:34;;;;;;;27.67;25.87;;;3.30;99.90;;;;;;5073851;28;20186;-72
2022/11/03 05:26:00;;;;;;;13.70;12.47;;;3.20;99.90;;;;;;5073741;28;20729;-72
2022/11/03 05:28:38;;;;;;;14.10;12.77;;;3.20;99.90;;;;;;5071806;28;20276;-72
2022/11/03 05:31:25;;;;;;;12.33;11.27;;;3.20;99.90;;;;;;5072640;28;20584;-71
2022/11/03 05:33:54;;;;;;;11.80;10.97;;;3.20;99.90;;;;;;5073358;28;20212;-74
2022/11/03 05:36:22;;;;;;;23.67;21.97;;;3.10;99.90;;;;;;5073298;28;20181;-73
2022/11/03 05:38:50;;;;;;;24.97;22.87;;;3.20;99.90;;;;;;5073039;28;20206;-73
2022/11/03 05:41:23;;;;;;;30.13;28.13;;;3.20;99.90;;;;;;5073617;28;20654;-74
2022/11/03 05:44:22;;;;;;;27.97;26.00;;;3.20;99.90;;;;;;5073200;28;20198;-74
2022/11/03 05:46:48;;;;;;;16.00;13.97;;;3.20;99.90;;;;;;5073285;28;20246;-73
2022/11/03 05:49:14;;;;;;;16.13;14.97;;;3.20;99.90;;;;;;5073275;28;20541;-74
2022/11/03 05:51:43;;;;;;;30.53;28.60;;;3.10;99.90;;;;;;5071749;28;20184;-74
2022/11/03 05:54:21;;;;;;;12.73;11.50;;;3.20;99.90;;;;;;5073137;28;20216;-73
2022/11/03 05:56:47;;;;;;;13.67;12.40;;;3.10;99.90;;;;;;5071833;28;20181;-73
2022/11/03 05:59:15;;;;;;;11.90;11.07;;;3.10;99.90;;;;;;5072961;28;20266;-73
2022/11/03 06:01:41;;;;;;;29.40;27.50;;;3.10;99.90;;;;;;5072121;28;20188;-73
2022/11/03 06:04:30;;;;;;;32.03;29.73;;;3.10;99.90;;;;;;5073185;28;20196;-72
2022/11/03 06:07:04;;;;;;;25.73;24.03;;;3.10;99.90;;;;;;5072595;28;20177;-75
2022/11/03 06:09:33;;;;;;;27.63;25.73;;;3.10;99.90;;;;;;5073359;28;20191;-74
2022/11/03 06:12:03;;;;;;;39.30;36.70;;;3.10;99.90;;;;;;5073159;28;20181;-74
2022/11/03 06:14:30;;;;;;;15.83;14.17;;;3.10;99.90;;;;;;5072797;28;20208;-74
2022/11/03 06:17:04;;;;;;;19.63;18.17;;;3.10;99.90;;;;;;5073190;28;20200;-73
2022/11/03 06:19:40;;;;;;;15.37;14.20;;;3.10;99.90;;;;;;5071477;28;20219;-71
2022/11/03 06:22:28;;;;;;;21.50;19.93;;;3.10;99.90;;;;;;5072926;28;20185;-70
2022/11/03 06:25:07;;;;;;;33.07;30.33;;;3.10;99.90;;;;;;5071702;28;20204;-70
2022/11/03 06:27:33;;;;;;;40.47;37.63;;;3.10;99.90;;;;;;5070876;28;20642;-71
2022/11/03 06:30:20;;;;;;;35.77;33.37;;;3.10;99.90;;;;;;5072866;28;20185;-69
2022/11/03 06:32:45;;;;;;;36.13;33.63;;;3.20;99.90;;;;;;5073450;28;20174;-69
2022/11/03 06:35:13;;;;;;;42.07;39.53;;;3.20;99.90;;;;;;5071255;28;20201;-71
2022/11/03 06:37:40;;;;;;;29.87;27.53;;;3.30;99.90;;;;;;5071310;28;20212;-70
2022/11/03 06:40:08;;;;;;;29.80;27.77;;;3.30;99.90;;;;;;5071456;28;20173;-70
2022/11/03 06:42:35;;;;;;;30.53;28.40;;;3.40;99.90;;;;;;5071280;28;20191;-71
2022/11/03 06:45:10;;;;;;;21.10;19.30;;;3.50;99.90;;;;;;5071538;28;20284;-71
2022/11/03 06:47:39;;;;;;;20.13;18.40;;;3.60;99.90;;;;;;5071209;28;20187;-71
2022/11/03 06:50:30;;;;;;;24.47;22.67;;;3.70;99.90;;;;;;5072050;28;20291;-71
2022/11/03 06:52:57;;;;;;;32.90;30.87;;;3.90;99.90;;;;;;5068942;28;20238;-71
2022/11/03 06:55:24;;;;;;;44.80;41.67;;;4.00;99.90;;;;;;5072173;28;20220;-71
2022/11/03 06:57:59;;;;;;;58.37;54.40;;;4.10;99.90;;;;;;5071718;28;20212;-74
2022/11/03 07:00:27;;;;;;;39.57;37.07;;;4.30;99.90;;;;;;5070593;28;20663;-71
2022/11/03 07:02:58;;;;;;;19.37;17.33;;;4.40;99.90;;;;;;5072221;28;20247;-77
2022/11/03 07:05:27;;;;;;;61.50;57.40;;;4.50;99.90;;;;;;5072279;28;20616;-76
2022/11/03 07:07:59;;;;;;;17.47;15.87;;;4.60;99.90;;;;;;5072117;28;20181;-76
2022/11/03 07:10:28;;;;;;;15.80;14.20;;;4.80;99.90;;;;;;5072360;28;20182;-75
2022/11/03 07:12:55;;;;;;;16.10;14.50;;;5.00;99.90;;;;;;5072796;28;20184;-75
2022/11/03 07:15:29;;;;;;;20.20;18.13;;;5.30;99.90;;;;;;5072105;28;20414;-75
2022/11/03 07:17:56;;;;;;;16.27;13.63;;;5.70;99.90;;;;;;5071963;28;20212;-76
2022/11/03 07:20:22;;;;;;;13.83;12.47;;;6.20;99.90;;;;;;5072220;28;20661;-75
2022/11/03 07:22:50;;;;;;;23.60;21.53;;;6.60;99.90;;;;;;5072070;28;20307;-76
2022/11/03 07:25:20;;;;;;;17.70;16.07;;;6.80;99.90;;;;;;5070671;28;20205;-75
2022/11/03 07:27:52;;;;;;;13.13;11.90;;;7.20;99.90;;;;;;5071548;28;20711;-76
2022/11/03 07:30:22;;;;;;;12.83;11.53;;;7.50;99.90;;;;;;5071961;28;20217;-76
2022/11/03 07:32:52;;;;;;;11.50;9.83;;;7.80;99.90;;;;;;5070942;28;20550;-76
2022/11/03 07:35:33;;;;;;;18.17;16.83;;;8.00;99.90;;;;;;5070722;28;20216;-76
2022/11/03 07:38:02;;;;;;;20.60;19.10;;;8.00;99.90;;;;;;5071495;28;20709;-76
2022/11/03 07:40:32;;;;;;;21.57;19.77;;;8.00;99.90;;;;;;5071783;28;20178;-76
2022/11/03 07:43:07;;;;;;;19.03;17.33;;;8.00;99.90;;;;;;5070578;28;20616;-76
2022/11/03 07:45:54;;;;;;;14.70;13.40;;;8.10;99.90;;;;;;5070381;28;20590;-76
2022/11/03 07:48:23;;;;;;;12.73;11.53;;;8.20;99.90;;;;;;5070260;28;20189;-76
2022/11/03 07:50:52;;;;;;;12.90;11.60;;;8.60;99.90;;;;;;5071398;28;20234;-76
2022/11/03 07:53:32;;;;;;;15.77;14.43;;;8.80;99.90;;;;;;5071925;28;20178;-76
2022/11/03 07:55:59;;;;;;;18.27;16.60;;;9.10;99.90;;;;;;5072092;28;20726;-76
2022/11/03 07:58:39;;;;;;;13.27;11.93;;;9.40;99.90;;;;;;5071106;28;20693;-76
2022/11/03 08:01:23;;;;;;;11.03;10.13;;;9.50;99.90;;;;;;5070153;28;20596;-76
2022/11/03 08:03:50;;;;;;;11.47;10.37;;;9.70;99.90;;;;;;5071314;28;20226;-76
2022/11/03 08:06:16;;;;;;;9.87;8.87;;;9.80;99.90;;;;;;5070225;28;20177;-76
2022/11/03 08:08:42;;;;;;;12.40;11.10;;;9.90;99.90;;;;;;5071000;28;20193;-76
2022/11/03 08:11:07;;;;;;;13.27;12.17;;;10.00;99.90;;;;;;5070170;28;20311;-76
2022/11/03 08:13:33;;;;;;;13.23;12.13;;;10.10;99.90;;;;;;5070446;28;20236;-76
2022/11/03 08:15:59;;;;;;;12.30;11.20;;;10.20;99.90;;;;;;5071318;28;20226;-76
2022/11/03 08:18:25;;;;;;;12.63;11.40;;;10.30;99.90;;;;;;5070719;28;20208;-76
2022/11/03 08:20:51;;;;;;;12.33;11.30;;;10.30;99.90;;;;;;5071134;28;20177;-76
2022/11/03 08:23:17;;;;;;;12.47;11.17;;;10.50;99.90;;;;;;5069938;28;20268;-76
2022/11/03 08:25:43;;;;;;;16.57;15.37;;;10.70;99.90;;;;;;5071184;28;20268;-77
2022/11/03 08:28:09;;;;;;;18.70;17.30;;;10.90;99.90;;;;;;5070780;28;20269;-76
2022/11/03 08:30:34;;;;;;;16.40;15.23;;;11.20;99.90;;;;;;5069912;28;20205;-76
2022/11/03 08:33:00;;;;;;;15.13;13.97;;;11.40;99.90;;;;;;5069802;28;20192;-77
2022/11/03 08:35:26;;;;;;;15.57;13.57;;;11.50;99.90;;;;;;5069750;28;20208;-76
2022/11/03 08:37:52;;;;;;;12.27;11.13;;;11.70;99.90;;;;;;5070562;28;20339;-76
2022/11/03 08:40:18;;;;;;;11.17;8.07;;;11.90;99.90;;;;;;5070949;28;20260;-76
2022/11/03 08:42:43;;;;;;;8.63;7.73;;;12.10;99.90;;;;;;5069845;28;20174;-76
2022/11/03 08:45:10;;;;;;;9.47;7.30;;;12.30;99.90;;;;;;5070989;28;20185;-76
2022/11/03 08:47:36;;;;;;;11.13;8.47;;;12.60;99.90;;;;;;5069333;28;20626;-76
2022/11/03 08:50:03;;;;;;;9.73;7.23;;;12.80;99.90;;;;;;5070927;28;20186;-76
2022/11/03 08:52:29;;;;;;;15.87;8.43;;;13.10;99.90;;;;;;5069540;28;20188;-76
2022/11/03 08:54:54;;;;;;;8.90;7.63;;;13.20;99.90;;;;;;5070604;28;20213;-76
2022/11/03 08:57:20;;;;;;;9.97;8.10;;;13.40;99.90;;;;;;5069093;28;20180;-76
2022/11/03 08:59:46;;;;;;;9.50;8.30;;;13.50;99.90;;;;;;5070575;28;20268;-76
2022/11/03 09:02:12;;;;;;;9.93;8.87;;;13.60;99.90;;;;;;5070884;28;20346;-76
2022/11/03 09:04:38;;;;;;;14.53;13.20;;;13.90;99.90;;;;;;5071035;28;20399;-77
2022/11/03 09:07:03;;;;;;;19.43;17.83;;;14.40;99.90;;;;;;5071461;28;20625;-77
2022/11/03 09:09:29;;;;;;;13.47;12.27;;;14.80;99.90;;;;;;5070648;28;20205;-76
2022/11/03 09:11:55;;;;;;;10.43;9.53;;;15.20;99.90;;;;;;5070636;28;20182;-76
2022/11/03 09:14:21;;;;;;;12.37;8.30;;;15.30;99.90;;;;;;5070539;28;20209;-75
2022/11/03 09:16:46;;;;;;;9.43;8.43;;;15.50;99.90;;;;;;5070288;28;20296;-75
2022/11/03 09:19:12;;;;;;;15.27;13.17;;;15.70;99.90;;;;;;5070523;28;20216;-74
2022/11/03 09:21:38;;;;;;;21.07;19.47;;;15.60;99.90;;;;;;5070554;28;20174;-77
2022/11/03 09:24:04;;;;;;;18.27;16.93;;;15.70;99.90;;;;;;5072779;28;20653;-76
2022/11/03 09:26:30;;;;;;;20.30;18.87;;;15.60;99.90;;;;;;5074379;28;20178;-74
2022/11/03 09:28:55;;;;;;;18.70;17.30;;;15.70;99.90;;;;;;5073742;28;20178;-74
2022/11/03 09:31:24;;;;;;;24.57;22.27;;;16.10;99.90;;;;;;5073173;28;20188;-75
2022/11/03 09:33:50;;;;;;;33.20;31.13;;;16.50;99.90;;;;;;5074056;28;20201;-76
2022/11/03 09:36:16;;;;;;;41.77;39.00;;;17.40;99.90;;;;;;5074280;28;20537;-77
2022/11/03 09:38:41;;;;;;;32.70;30.70;;;17.60;99.90;;;;;;5073660;28;20209;-77
2022/11/03 09:41:08;;;;;;;28.33;26.47;;;17.70;99.90;;;;;;5072965;28;20593;-74
2022/11/03 09:43:34;;;;;;;28.90;26.80;;;17.60;99.90;;;;;;5072608;28;20280;-77
2022/11/03 09:46:00;;;;;;;31.40;29.27;;;18.00;99.90;;;;;;5073990;28;20274;-76
2022/11/03 09:48:27;;;;;;;23.83;21.90;;;18.30;99.90;;;;;;5072492;28;20677;-77
2022/11/03 09:50:53;;;;;;;23.87;22.07;;;18.10;99.90;;;;;;5073929;28;20198;-76
2022/11/03 09:53:20;;;;;;;26.60;24.47;;;18.30;99.90;;;;;;5073650;28;20185;-76
2022/11/03 09:55:46;;;;;;;16.60;15.43;;;18.30;99.90;;;;;;5073924;28;20273;-76
2022/11/03 09:58:14;;;;;;;19.20;17.80;;;17.90;99.90;;;;;;5071917;28;20296;-76
2022/11/03 10:00:40;;;;;;;62.67;56.47;;;17.60;99.90;;;;;;5073792;28;20185;-76
2022/11/03 10:03:10;;;;;;;8.73;7.87;;;17.90;99.90;;;;;;5073731;28;20261;-76
2022/11/03 10:05:37;;;;;;;8.10;7.50;;;18.20;99.90;;;;;;5073782;28;20239;-76
2022/11/03 10:08:13;;;;;;;12.33;11.40;;;18.50;99.90;;;;;;5073201;28;20178;-76
2022/11/03 10:10:40;;;;;;;12.90;11.70;;;18.30;99.90;;;;;;5073973;28;20186;-76
2022/11/03 10:13:12;;;;;;;18.43;17.17;;;17.90;99.90;;;;;;5073455;28;20188;-76
2022/11/03 10:15:38;;;;;;;22.17;20.83;;;17.50;99.90;;;;;;5073439;28;20277;-76
2022/11/03 10:18:05;;;;;;;24.87;23.40;;;17.10;99.90;;;;;;5072947;28;20233;-76
2022/11/03 10:20:31;;;;;;;36.50;34.33;;;16.80;99.90;;;;;;5073368;28;20181;-76
2022/11/03 10:22:57;;;;;;;36.03;34.07;;;16.80;99.90;;;;;;5073264;28;20182;-76
2022/11/03 10:25:42;;;;;;;60.67;57.47;;;16.60;99.90;;;;;;5073153;28;20602;-76
2022/11/03 10:28:16;;;;;;;93.43;88.67;;;16.30;99.90;;;;;;5072802;28;20231;-76
2022/11/03 10:31:19;;;;;;;96.53;91.57;;;16.00;99.90;;;;;;5073195;28;20219;-76
2022/11/03 10:33:54;;;;;;;85.17;80.50;;;15.70;99.90;;;;;;5060051;28;20231;-76
2022/11/03 10:36:21;;;;;;;75.87;71.77;;;15.70;99.90;;;;;;5072139;28;20191;-77
2022/11/03 10:38:47;;;;;;;87.43;82.93;;;15.80;99.90;;;;;;5071353;28;20205;-76
2022/11/03 10:41:15;;;;;;;90.53;86.00;;;15.90;99.90;;;;;;5072907;28;20717;-77
2022/11/03 10:43:43;;;;;;;86.87;82.40;;;16.00;99.90;;;;;;5072694;28;20243;-76
2022/11/03 10:46:19;;;;;;;92.20;87.70;;;16.10;99.90;;;;;;5072912;28;20190;-76
2022/11/03 10:49:09;;;;;;;92.03;87.47;;;16.00;99.90;;;;;;5072683;28;20620;-76
2022/11/03 10:51:35;;;;;;;90.77;86.03;;;15.90;99.90;;;;;;5073013;28;20289;-76
2022/11/03 10:54:09;;;;;;;93.37;88.67;;;16.00;99.90;;;;;;5072563;28;20746;-76
2022/11/03 10:56:35;;;;;;;94.50;89.83;;;15.90;99.90;;;;;;5071411;28;20223;-76
2022/11/03 10:59:01;;;;;;;71.10;66.83;;;15.60;99.90;;;;;;5072152;28;20661;-76
2022/11/03 11:01:27;;;;;;;76.07;72.03;;;15.50;99.90;;;;;;5071424;28;20643;-76
2022/11/03 11:03:54;;;;;;;73.20;69.40;;;15.60;99.90;;;;;;5072449;28;20201;-76
2022/11/03 11:06:28;;;;;;;88.60;84.03;;;15.80;99.90;;;;;;5072453;28;20182;-76
2022/11/03 11:09:00;;;;;;;84.23;79.50;;;16.00;99.90;;;;;;5070794;28;20553;-76
2022/11/03 11:11:25;;;;;;;89.40;84.90;;;16.10;99.90;;;;;;5071114;28;20203;-76
2022/11/03 11:14:20;;;;;;;90.13;85.47;;;16.20;99.90;;;;;;5072528;28;20248;-76
2022/11/03 11:16:49;;;;;;;96.77;91.90;;;16.20;99.90;;;;;;5072054;28;20189;-76
2022/11/03 11:19:14;;;;;;;94.10;89.40;;;16.30;99.90;;;;;;5070790;28;20292;-76
2022/11/03 11:21:40;;;;;;;90.37;85.87;;;16.40;99.90;;;;;;5071930;28;20761;-76
2022/11/03 11:24:10;;;;;;;85.90;81.40;;;16.50;99.90;;;;;;5072281;28;20208;-76
2022/11/03 11:26:37;;;;;;;80.47;76.27;;;16.50;99.90;;;;;;5071890;28;20272;-76
2022/11/03 11:29:09;;;;;;;71.50;67.80;;;16.60;99.90;;;;;;5071697;28;20177;-77
2022/11/03 11:31:35;;;;;;;92.27;87.43;;;16.20;99.90;;;;;;5072052;28;20594;-76
2022/11/03 11:34:18;;;;;;;94.13;88.80;;;15.90;99.90;;;;;;5071966;28;20212;-76
2022/11/03 11:36:46;;;;;;;83.77;79.23;;;15.70;99.90;;;;;;5071944;28;20239;-76
2022/11/03 11:39:27;;;;;;;68.87;65.03;;;15.70;99.90;;;;;;5071658;28;20205;-76
2022/11/03 11:42:04;;;;;;;48.23;45.47;;;15.70;99.90;;;;;;5071809;28;20268;-76
2022/11/03 11:44:42;;;;;;;40.10;37.47;;;15.70;99.90;;;;;;5071644;28;20197;-76
2022/11/03 11:47:42;;;;;;;42.87;40.17;;;15.70;99.90;;;;;;5071369;28;20181;-76
2022/11/03 11:50:08;;;;;;;49.27;46.47;;;15.90;99.90;;;;;;5071914;28;20207;-77
2022/11/03 11:52:52;;;;;;;60.27;56.97;;;16.00;99.90;;;;;;5070781;28;20264;-76
2022/11/03 11:55:24;;;;;;;67.53;64.13;;;16.10;99.90;;;;;;5071476;28;20209;-76
2022/11/03 11:57:51;;;;;;;85.40;81.10;;;16.10;99.90;;;;;;5071170;28;20259;-76
2022/11/03 12:00:22;;;;;;;79.80;75.53;;;16.00;99.90;;;;;;5071451;28;20177;-76
2022/11/03 12:02:49;;;;;;;51.93;49.10;;;15.80;99.90;;;;;;5071532;28;20185;-76
2022/11/03 12:05:27;;;;;;;47.13;44.67;;;15.70;99.90;;;;;;5071298;28;20220;-76
2022/11/03 12:07:54;;;;;;;42.50;40.00;;;15.80;99.90;;;;;;5069978;28;20188;-76
2022/11/03 12:10:25;;;;;;;40.60;38.33;;;15.90;99.90;;;;;;5071279;28;20185;-76
2022/11/03 12:12:51;;;;;;;34.00;32.10;;;15.90;99.90;;;;;;5070047;28;20189;-76
2022/11/03 12:15:51;;;;;;;39.17;36.83;;;16.00;99.90;;;;;;5071374;28;20686;-76
2022/11/03 12:18:41;;;;;;;45.10;42.50;;;16.10;99.90;;;;;;5070869;28;20600;-76
2022/11/03 12:21:09;;;;;;;45.97;42.87;;;16.20;99.90;;;;;;5069897;28;20181;-76
2022/11/03 12:23:40;;;;;;;48.73;45.80;;;16.20;99.90;;;;;;5069999;28;20201;-76
2022/11/03 12:26:17;;;;;;;38.93;36.43;;;16.10;99.90;;;;;;5070141;28;20182;-76
2022/11/03 12:28:43;;;;;;;38.93;36.37;;;16.00;99.90;;;;;;5070864;28;20185;-76
2022/11/03 12:31:09;;;;;;;21.53;19.90;;;15.90;99.90;;;;;;5071043;28;20188;-76
2022/11/03 12:33:35;;;;;;;16.20;14.90;;;15.80;99.90;;;;;;5069859;28;20267;-76
2022/11/03 12:36:01;;;;;;;14.17;13.27;;;15.60;99.90;;;;;;5071181;28;20177;-75
2022/11/03 12:38:27;;;;;;;11.07;10.23;;;15.50;99.90;;;;;;5070929;28;20709;-76
2022/11/03 12:40:52;;;;;;;12.53;11.30;;;15.40;99.90;;;;;;5071444;28;20550;-76
2022/11/03 12:43:19;;;;;;;12.53;11.50;;;15.40;99.90;;;;;;5069824;28;20177;-76
2022/11/03 12:45:44;;;;;;;12.77;11.67;;;15.40;99.90;;;;;;5069851;28;20177;-76
2022/11/03 12:48:10;;;;;;;15.37;14.33;;;15.40;99.90;;;;;;5071041;28;20544;-76
2022/11/03 12:50:38;;;;;;;17.70;16.33;;;15.30;99.90;;;;;;5071009;28;20231;-76
2022/11/03 12:53:05;;;;;;;15.50;14.23;;;15.40;99.90;;;;;;5069747;28;20192;-76
2022/11/03 12:55:32;;;;;;;17.67;16.43;;;15.40;99.90;;;;;;5069599;28;20214;-76
2022/11/03 12:57:58;;;;;;;16.20;15.20;;;15.40;99.90;;;;;;5070208;28;20209;-76
2022/11/03 13:00:24;;;;;;;23.27;20.87;;;15.40;99.90;;;;;;5074699;28;20219;-76
2022/11/03 13:02:50;;;;;;;19.17;17.57;;;15.40;99.90;;;;;;5073472;28;20192;-76
2022/11/03 13:05:15;;;;;;;17.63;16.63;;;15.40;99.90;;;;;;5073464;28;20197;-76
2022/11/03 13:07:42;;;;;;;18.80;17.60;;;15.40;99.90;;;;;;5074257;28;20185;-76
2022/11/03 13:10:08;;;;;;;19.43;18.33;;;15.30;99.90;;;;;;5074581;28;20209;-76